Time;durP1;ratioP1;P1;durP2;ratioP2;P2;SDS_P1;SDS_P2;PMS_P1;PMS_P2;Temp;Humidity;BMP_temperature;BMP_pressure;BME280_temperature;BME280_humidity;BME280_pressure;Samples;Min_cycle;Max_cycle;Signal;HPM_P1;HPM_P2
2022/02/12 00:01:53;;;;;;;10.63;4.63;;;;;;;;;;4990191;28;20041;-66
2022/02/12 00:04:18;;;;;;;9.50;4.17;;;;;;;;;;4990041;28;20045;-64
2022/02/12 00:06:43;;;;;;;10.90;4.70;;;;;;;;;;4981191;28;20563;-64
2022/02/12 00:09:08;;;;;;;10.53;4.80;;;;;;;;;;4994520;28;20561;-65
2022/02/12 00:11:34;;;;;;;9.63;3.97;;;;;;;;;;4997889;28;20504;-66
2022/02/12 00:13:59;;;;;;;9.10;4.30;;;;;;;;;;4981358;28;20030;-66
2022/02/12 00:16:24;;;;;;;9.47;4.30;;;;;;;;;;4990216;28;20030;-66
2022/02/12 00:18:49;;;;;;;7.73;4.00;;;;;;;;;;4992687;28;20038;-66
2022/02/12 00:21:14;;;;;;;11.00;3.80;;;;;;;;;;4986917;28;20057;-66
2022/02/12 00:23:40;;;;;;;11.57;4.40;;;;;;;;;;4998622;28;20038;-65
2022/02/12 00:26:05;;;;;;;10.13;4.30;;;;;;;;;;4990846;28;20034;-66
2022/02/12 00:28:30;;;;;;;8.27;4.03;;;;;;;;;;4996378;28;20052;-66
2022/02/12 00:30:55;;;;;;;7.57;4.20;;;;;;;;;;4995161;28;20042;-66
2022/02/12 00:33:21;;;;;;;11.50;4.07;;;;;;;;;;4996256;28;20057;-63
2022/02/12 00:35:46;;;;;;;9.63;4.20;;;;;;;;;;5002274;28;20355;-63
2022/02/12 00:38:12;;;;;;;9.17;4.10;;;;;;;;;;5002693;28;20437;-63
2022/02/12 00:40:37;;;;;;;9.00;4.17;;;;;;;;;;5002340;28;20263;-63
2022/02/12 00:43:03;;;;;;;10.87;4.50;;;;;;;;;;5001828;28;20341;-63
2022/02/12 00:45:29;;;;;;;8.45;4.03;;;;;;;;;;5001553;28;20030;-66
2022/02/12 00:47:54;;;;;;;7.70;4.47;;;;;;;;;;5002216;28;20037;-65
2022/02/12 00:50:19;;;;;;;8.90;4.10;;;;;;;;;;5001831;28;20283;-65
2022/02/12 00:52:44;;;;;;;7.80;4.13;;;;;;;;;;5002483;28;20029;-66
2022/02/12 00:55:10;;;;;;;9.03;3.80;;;;;;;;;;5005547;28;20547;-66
2022/02/12 00:57:35;;;;;;;6.60;3.60;;;;;;;;;;5005638;28;20423;-65
2022/02/12 01:00:00;;;;;;;8.00;4.10;;;;;;;;;;4994342;28;20022;-66
2022/02/12 01:02:25;;;;;;;8.57;3.83;;;;;;;;;;5006217;28;20360;-66
2022/02/12 01:04:51;;;;;;;9.45;4.85;;;;;;;;;;5000326;28;20033;-65
2022/02/12 01:07:16;;;;;;;8.97;4.17;;;;;;;;;;5006297;28;20026;-66
2022/02/12 01:09:41;;;;;;;12.23;4.23;;;;;;;;;;4992898;28;20407;-66
2022/02/12 01:12:06;;;;;;;8.50;4.20;;;;;;;;;;4995363;28;20509;-66
2022/02/12 01:14:32;;;;;;;6.88;3.97;;;;;;;;;;5003792;28;20057;-66
2022/02/12 01:16:57;;;;;;;8.30;3.90;;;;;;;;;;5005693;28;20563;-66
2022/02/12 01:19:22;;;;;;;7.27;4.00;;;;;;;;;;5005964;28;20108;-66
2022/02/12 01:21:48;;;;;;;9.40;4.23;;;;;;;;;;5005663;28;20045;-66
2022/02/12 01:24:13;;;;;;;7.40;3.67;;;;;;;;;;4999296;28;20090;-66
2022/02/12 01:26:38;;;;;;;6.17;3.50;;;;;;;;;;4999090;28;20338;-66
2022/02/12 01:29:04;;;;;;;7.07;3.97;;;;;;;;;;4993428;28;20125;-66
2022/02/12 01:31:29;;;;;;;9.40;3.72;;;;;;;;;;5009617;28;20344;-66
2022/02/12 01:33:54;;;;;;;7.67;3.87;;;;;;;;;;4996008;28;20138;-66
2022/02/12 01:36:20;;;;;;;7.67;3.63;;;;;;;;;;4999857;28;22171;-66
2022/02/12 01:38:45;;;;;;;7.17;3.93;;;;;;;;;;4995899;28;20658;-66
2022/02/12 01:41:10;;;;;;;6.80;3.60;;;;;;;;;;4995018;28;20113;-66
2022/02/12 01:43:35;;;;;;;8.43;3.80;;;;;;;;;;4997252;28;20073;-66
2022/02/12 01:46:00;;;;;;;5.97;3.30;;;;;;;;;;5005456;28;20111;-66
2022/02/12 01:48:27;;;;;;;7.17;3.73;;;;;;;;;;5009471;28;20698;-66
2022/02/12 01:50:52;;;;;;;9.57;3.35;;;;;;;;;;5001116;28;20587;-66
2022/02/12 01:53:17;;;;;;;6.67;3.53;;;;;;;;;;5007808;28;20113;-66
2022/02/12 01:55:42;;;;;;;6.78;3.42;;;;;;;;;;4993352;28;20070;-66
2022/02/12 01:58:09;;;;;;;9.50;3.30;;;;;;;;;;5005416;28;20122;-66
2022/02/12 02:00:35;;;;;;;6.13;3.20;;;;;;;;;;5001894;28;20087;-66
2022/02/12 02:03:00;;;;;;;7.10;3.35;;;;;;;;;;4995940;28;20487;-66
2022/02/12 02:05:25;;;;;;;7.60;3.20;;;;;;;;;;5002926;28;20229;-66
2022/02/12 02:07:51;;;;;;;7.17;3.23;;;;;;;;;;4994567;28;20082;-66
2022/02/12 02:10:16;;;;;;;6.78;3.50;;;;;;;;;;5003773;28;20118;-66
2022/02/12 02:12:41;;;;;;;10.20;3.57;;;;;;;;;;4995942;28;20616;-66
2022/02/12 02:15:07;;;;;;;10.33;3.40;;;;;;;;;;5007353;28;20516;-66
2022/02/12 02:17:32;;;;;;;8.68;3.53;;;;;;;;;;4998196;28;20106;-65
2022/02/12 02:19:57;;;;;;;7.87;3.60;;;;;;;;;;4998786;28;20126;-66
2022/02/12 02:22:29;;;;;;;8.10;3.77;;;;;;;;;;5003237;28;20102;-66
2022/02/12 02:24:54;;;;;;;9.90;3.88;;;;;;;;;;5003552;28;20144;-66
2022/02/12 02:27:21;;;;;;;8.80;3.80;;;;;;;;;;5003050;28;20168;-66
2022/02/12 02:29:46;;;;;;;9.25;3.50;;;;;;;;;;5013114;28;20098;-66
2022/02/12 02:32:12;;;;;;;5.73;2.93;;;;;;;;;;4994504;28;20204;-66
2022/02/12 02:34:38;;;;;;;7.53;3.20;;;;;;;;;;5004842;28;20197;-66
2022/02/12 02:37:04;;;;;;;6.40;3.25;;;;;;;;;;4994790;28;20062;-66
2022/02/12 02:39:29;;;;;;;5.63;2.92;;;;;;;;;;5001869;28;20090;-66
2022/02/12 02:41:54;;;;;;;7.17;3.17;;;;;;;;;;5009547;28;20102;-66
2022/02/12 02:44:21;;;;;;;7.10;3.30;;;;;;;;;;5019228;28;20082;-66
2022/02/12 02:46:46;;;;;;;7.70;2.90;;;;;;;;;;4993613;28;20823;-66
2022/02/12 02:49:11;;;;;;;4.83;2.80;;;;;;;;;;5004756;28;20160;-66
2022/02/12 02:57:04;;;;;;;7.30;3.42;;;;;;;;;;4995744;28;20109;-66
2022/02/12 02:59:29;;;;;;;7.82;3.47;;;;;;;;;;4998119;28;20082;-65
2022/02/12 03:01:55;;;;;;;6.33;2.97;;;;;;;;;;4994994;28;20110;-66
2022/02/12 03:04:20;;;;;;;8.55;2.80;;;;;;;;;;5001068;28;20334;-66
2022/02/12 03:06:45;;;;;;;9.15;3.60;;;;;;;;;;4995189;28;20091;-66
2022/02/12 03:09:10;;;;;;;6.73;3.10;;;;;;;;;;5004197;28;20125;-65
2022/02/12 03:11:36;;;;;;;7.80;3.07;;;;;;;;;;5004218;28;20070;-66
2022/02/12 03:14:01;;;;;;;6.50;2.80;;;;;;;;;;4991069;28;20109;-66
2022/02/12 03:16:26;;;;;;;5.07;3.07;;;;;;;;;;5003233;28;20059;-66
2022/02/12 03:18:51;;;;;;;7.07;2.88;;;;;;;;;;5002650;28;20106;-66
2022/02/12 03:21:17;;;;;;;10.10;3.17;;;;;;;;;;4990880;28;20105;-65
2022/02/12 03:23:43;;;;;;;7.03;2.83;;;;;;;;;;5003047;28;20090;-66
2022/02/12 03:26:08;;;;;;;7.57;3.28;;;;;;;;;;5003473;28;20094;-66
2022/02/12 03:28:33;;;;;;;9.18;3.05;;;;;;;;;;5004335;28;20511;-66
2022/02/12 03:30:59;;;;;;;6.47;3.00;;;;;;;;;;4996051;28;20125;-66
2022/02/12 03:33:24;;;;;;;6.90;2.97;;;;;;;;;;5002554;28;20500;-66
2022/02/12 03:35:49;;;;;;;7.63;3.10;;;;;;;;;;4990625;28;20070;-66
2022/02/12 03:38:15;;;;;;;8.20;3.47;;;;;;;;;;5003780;28;20134;-66
2022/02/12 03:40:49;;;;;;;8.00;3.17;;;;;;;;;;5001741;28;20077;-66
2022/02/12 03:43:15;;;;;;;7.45;3.22;;;;;;;;;;5004350;28;20109;-66
2022/02/12 03:45:40;;;;;;;10.45;2.80;;;;;;;;;;4990619;28;20115;-66
2022/02/12 03:48:06;;;;;;;7.82;3.10;;;;;;;;;;5009865;28;20087;-66
2022/02/12 03:50:31;;;;;;;8.52;3.08;;;;;;;;;;4996970;28;20197;-66
2022/02/12 03:52:57;;;;;;;4.80;2.67;;;;;;;;;;5001989;28;20503;-65
2022/02/12 03:55:22;;;;;;;5.28;2.85;;;;;;;;;;4993039;28;20102;-66
2022/02/12 03:57:48;;;;;;;9.00;3.17;;;;;;;;;;5009961;28;20128;-66
2022/02/12 04:00:14;;;;;;;5.15;2.70;;;;;;;;;;4994103;28;20498;-65
2022/02/12 04:02:39;;;;;;;10.88;2.85;;;;;;;;;;5016506;28;20102;-66
2022/02/12 04:05:04;;;;;;;9.45;2.80;;;;;;;;;;5005832;28;20093;-66
2022/02/12 04:07:30;;;;;;;6.70;2.55;;;;;;;;;;5008205;28;20081;-66
2022/02/12 04:09:55;;;;;;;7.83;2.80;;;;;;;;;;5001510;28;20099;-66
2022/02/12 04:12:20;;;;;;;7.17;2.53;;;;;;;;;;5005835;28;20085;-66
2022/02/12 04:14:45;;;;;;;6.90;3.40;;;;;;;;;;4993887;28;20098;-66
2022/02/12 04:17:10;;;;;;;7.87;3.30;;;;;;;;;;5012551;28;20140;-66
2022/02/12 04:19:35;;;;;;;6.70;3.07;;;;;;;;;;5011866;28;20166;-66
2022/02/12 04:22:01;;;;;;;6.27;2.43;;;;;;;;;;5006885;28;20626;-66
2022/02/12 04:24:26;;;;;;;6.57;2.60;;;;;;;;;;4998405;28;20443;-66
2022/02/12 04:26:51;;;;;;;7.87;2.70;;;;;;;;;;5007382;28;20354;-66
2022/02/12 04:29:16;;;;;;;4.68;2.60;;;;;;;;;;5007544;28;20094;-66
2022/02/12 04:31:42;;;;;;;8.33;3.33;;;;;;;;;;4994081;28;20164;-66
2022/02/12 04:34:07;;;;;;;6.27;3.00;;;;;;;;;;5007238;28;20106;-66
2022/02/12 04:36:32;;;;;;;8.00;3.27;;;;;;;;;;5005485;28;20144;-66
2022/02/12 04:38:57;;;;;;;7.37;3.20;;;;;;;;;;5006716;28;20118;-66
2022/02/12 04:41:23;;;;;;;9.30;3.50;;;;;;;;;;5004987;28;20102;-66
2022/02/12 04:43:49;;;;;;;7.17;2.87;;;;;;;;;;5012771;28;20079;-66
2022/02/12 04:46:14;;;;;;;8.60;3.25;;;;;;;;;;4998380;28;20105;-66
2022/02/12 04:48:39;;;;;;;6.73;3.00;;;;;;;;;;5005714;28;20074;-66
2022/02/12 04:51:04;;;;;;;7.20;2.90;;;;;;;;;;4997315;28;20346;-66
2022/02/12 04:53:30;;;;;;;11.43;3.33;;;;;;;;;;5014166;28;20101;-66
2022/02/12 04:55:55;;;;;;;5.60;2.90;;;;;;;;;;4999551;28;20075;-66
2022/02/12 04:58:20;;;;;;;4.93;2.43;;;;;;;;;;5011294;28;20364;-66
2022/02/12 05:00:45;;;;;;;6.67;2.83;;;;;;;;;;4990412;28;20528;-66
2022/02/12 05:03:10;;;;;;;8.67;3.00;;;;;;;;;;5012133;28;20081;-66
2022/02/12 05:05:36;;;;;;;7.40;2.73;;;;;;;;;;5002571;28;20102;-65
2022/02/12 05:08:01;;;;;;;9.50;2.63;;;;;;;;;;5003138;28;20094;-66
2022/02/12 05:10:26;;;;;;;5.13;2.77;;;;;;;;;;4999742;28;20805;-66
2022/02/12 05:12:51;;;;;;;8.93;3.43;;;;;;;;;;5005670;28;20752;-66
2022/02/12 05:15:17;;;;;;;9.47;2.87;;;;;;;;;;4993398;28;20086;-66
2022/02/12 05:17:42;;;;;;;8.43;2.77;;;;;;;;;;5004526;28;20579;-65
2022/02/12 05:20:07;;;;;;;5.00;2.40;;;;;;;;;;5001315;28;20142;-66
2022/02/12 05:22:33;;;;;;;5.60;2.45;;;;;;;;;;4999415;28;20346;-66
2022/02/12 05:24:58;;;;;;;9.43;2.40;;;;;;;;;;5003465;28;20082;-66
2022/02/12 05:27:23;;;;;;;7.10;2.60;;;;;;;;;;5006459;28;20067;-66
2022/02/12 05:29:48;;;;;;;4.10;2.63;;;;;;;;;;5001340;28;20105;-66
2022/02/12 05:32:13;;;;;;;7.67;2.63;;;;;;;;;;5006044;28;20169;-66
2022/02/12 05:34:39;;;;;;;7.57;2.50;;;;;;;;;;5004371;28;20100;-66
2022/02/12 05:37:04;;;;;;;6.23;2.80;;;;;;;;;;5004935;28;20182;-65
2022/02/12 05:39:29;;;;;;;9.85;3.22;;;;;;;;;;5002714;28;20711;-66
2022/02/12 05:41:54;;;;;;;11.97;4.33;;;;;;;;;;4993482;28;20105;-66
2022/02/12 05:44:20;;;;;;;10.90;5.10;;;;;;;;;;5005097;28;20376;-66
2022/02/12 05:46:45;;;;;;;12.03;4.50;;;;;;;;;;5005810;28;20570;-66
2022/02/12 05:49:10;;;;;;;10.43;4.07;;;;;;;;;;5007279;28;20102;-66
2022/02/12 05:51:36;;;;;;;10.77;3.80;;;;;;;;;;4996114;28;20070;-66
2022/02/12 05:54:01;;;;;;;7.37;3.20;;;;;;;;;;5004084;28;20586;-66
2022/02/12 05:56:27;;;;;;;7.07;2.85;;;;;;;;;;5004218;28;20379;-66
2022/02/12 05:58:52;;;;;;;8.40;2.60;;;;;;;;;;4993778;28;20116;-66
2022/02/12 06:01:17;;;;;;;7.27;2.80;;;;;;;;;;5005422;28;20098;-66
2022/02/12 06:03:43;;;;;;;6.33;2.70;;;;;;;;;;4992478;28;20874;-66
2022/02/12 06:06:08;;;;;;;8.03;2.70;;;;;;;;;;5005549;28;20364;-66
2022/02/12 06:08:33;;;;;;;5.77;2.57;;;;;;;;;;4997498;28;20393;-66
2022/02/12 06:10:59;;;;;;;9.53;3.50;;;;;;;;;;5012589;28;20553;-66
2022/02/12 06:13:24;;;;;;;5.05;2.67;;;;;;;;;;4995011;28;20109;-66
2022/02/12 06:15:49;;;;;;;9.25;2.75;;;;;;;;;;5011020;28;20314;-66
2022/02/12 06:18:15;;;;;;;8.60;3.05;;;;;;;;;;4997552;28;20685;-66
2022/02/12 06:20:40;;;;;;;9.27;3.10;;;;;;;;;;5006882;28;20590;-66
2022/02/12 06:23:05;;;;;;;5.23;2.87;;;;;;;;;;5013261;28;20330;-66
2022/02/12 06:25:30;;;;;;;7.03;2.80;;;;;;;;;;5004548;28;20141;-66
2022/02/12 06:27:57;;;;;;;10.83;3.13;;;;;;;;;;5001944;28;20343;-66
2022/02/12 06:30:22;;;;;;;5.97;2.85;;;;;;;;;;5005214;28;20436;-66
2022/02/12 06:32:48;;;;;;;5.82;2.70;;;;;;;;;;4991598;28;20401;-66
2022/02/12 06:35:14;;;;;;;9.80;3.10;;;;;;;;;;5004696;28;20105;-65
2022/02/12 06:37:39;;;;;;;7.97;3.10;;;;;;;;;;4991867;28;20624;-66
2022/02/12 06:40:04;;;;;;;8.63;3.40;;;;;;;;;;5009542;28;20074;-66
2022/02/12 06:42:29;;;;;;;7.93;3.60;;;;;;;;;;4991508;28;20571;-66
2022/02/12 06:44:55;;;;;;;9.33;3.50;;;;;;;;;;4996860;28;20082;-66
2022/02/12 06:47:20;;;;;;;5.30;2.87;;;;;;;;;;4998128;28;20070;-66
2022/02/12 06:49:45;;;;;;;14.17;4.60;;;;;;;;;;5009216;28;20102;-66
2022/02/12 06:52:10;;;;;;;6.67;3.07;;;;;;;;;;4995424;28;20470;-66
2022/02/12 06:54:35;;;;;;;6.53;2.70;;;;;;;;;;5002394;28;20527;-66
2022/02/12 06:57:01;;;;;;;6.27;3.30;;;;;;;;;;4996628;28;20071;-66
2022/02/12 06:59:26;;;;;;;7.53;3.43;;;;;;;;;;5011284;28;20451;-66
2022/02/12 07:01:51;;;;;;;10.23;3.60;;;;;;;;;;4991282;28;20193;-66
2022/02/12 07:04:16;;;;;;;12.13;3.60;;;;;;;;;;5003332;28;20066;-66
2022/02/12 07:06:42;;;;;;;7.17;3.07;;;;;;;;;;5004092;28;20105;-66
2022/02/12 07:09:07;;;;;;;6.03;2.90;;;;;;;;;;5011673;28;20110;-66
2022/02/12 07:11:32;;;;;;;5.33;3.03;;;;;;;;;;5003672;28;20595;-66
2022/02/12 07:13:58;;;;;;;6.55;2.92;;;;;;;;;;5001425;28;20185;-66
2022/02/12 07:16:23;;;;;;;7.05;2.78;;;;;;;;;;4999728;28;20062;-66
2022/02/12 07:18:48;;;;;;;5.47;2.80;;;;;;;;;;4999236;28;20110;-66
2022/02/12 07:21:14;;;;;;;8.40;3.28;;;;;;;;;;5001219;28;20102;-66
2022/02/12 07:23:40;;;;;;;10.93;3.17;;;;;;;;;;5018310;28;20088;-66
2022/02/12 07:26:06;;;;;;;6.78;3.08;;;;;;;;;;5008310;28;20140;-66
2022/02/12 07:28:31;;;;;;;9.25;4.13;;;;;;;;;;5017999;28;20140;-66
2022/02/12 07:30:56;;;;;;;11.07;3.70;;;;;;;;;;4992482;28;20466;-66
2022/02/12 07:33:22;;;;;;;7.07;3.30;;;;;;;;;;5003638;28;20189;-66
2022/02/12 07:35:49;;;;;;;9.15;3.10;;;;;;;;;;5013036;28;20333;-66
2022/02/12 07:38:15;;;;;;;7.95;3.10;;;;;;;;;;4992937;28;20115;-65
2022/02/12 07:40:40;;;;;;;6.03;2.93;;;;;;;;;;5002459;28;20463;-66
2022/02/12 07:43:06;;;;;;;5.67;2.60;;;;;;;;;;4991827;28;20106;-66
2022/02/12 07:45:32;;;;;;;4.18;2.72;;;;;;;;;;5013429;28;20101;-66
2022/02/12 07:47:57;;;;;;;6.25;3.10;;;;;;;;;;4991305;28;20623;-66
2022/02/12 07:50:23;;;;;;;9.30;2.83;;;;;;;;;;5001885;28;20163;-66
2022/02/12 07:52:48;;;;;;;6.90;2.90;;;;;;;;;;4999293;28;20325;-66
2022/02/12 07:55:14;;;;;;;6.80;2.77;;;;;;;;;;4999055;28;20645;-66
2022/02/12 07:57:39;;;;;;;6.97;2.90;;;;;;;;;;4999755;28;20287;-66
2022/02/12 08:00:05;;;;;;;2.80;2.50;;;;;;;;;;5002915;28;20108;-66
2022/02/12 08:02:30;;;;;;;7.60;2.60;;;;;;;;;;5000261;28;20113;-66
2022/02/12 08:04:55;;;;;;;6.07;2.47;;;;;;;;;;4991648;28;20052;-66
2022/02/12 08:07:29;;;;;;;6.90;2.60;;;;;;;;;;4990063;28;20026;-66
2022/02/12 08:09:54;;;;;;;7.00;3.22;;;;;;;;;;4992402;28;20038;-66
2022/02/12 08:12:20;;;;;;;6.23;2.80;;;;;;;;;;4999724;28;20006;-66
2022/02/12 08:14:49;;;;;;;7.07;2.67;;;;;;;;;;5010436;28;20520;-66
2022/02/12 08:17:17;;;;;;;;;;;;;;;;;;5011462;28;20363;-66
2022/02/12 08:19:44;;;;;;;6.95;3.13;;;;;;;;;;5001091;28;20381;-66
2022/02/12 08:22:11;;;;;;;6.82;2.90;;;;;;;;;;4998094;28;20552;-66
2022/02/12 08:24:36;;;;;;;7.57;3.17;;;;;;;;;;4998889;28;20097;-66
2022/02/12 08:27:01;;;;;;;5.53;2.80;;;;;;;;;;4995968;28;20133;-66
2022/02/12 08:29:28;;;;;;;8.13;3.17;;;;;;;;;;4996451;28;20023;-66
2022/02/12 08:31:54;;;;;;;6.55;2.75;;;;;;;;;;4996212;28;20277;-66
2022/02/12 08:34:20;;;;;;;6.07;2.63;;;;;;;;;;5009353;28;20046;-66
2022/02/12 08:36:46;;;;;;;10.27;2.85;;;;;;;;;;5002524;28;20061;-66
2022/02/12 08:39:11;;;;;;;7.40;2.70;;;;;;;;;;4991647;28;20196;-66
2022/02/12 08:41:36;;;;;;;9.40;3.17;;;;;;;;;;4994691;28;20828;-66
2022/02/12 08:44:01;;;;;;;7.10;2.93;;;;;;;;;;4998385;28;20482;-66
2022/02/12 08:46:27;;;;;;;5.80;2.67;;;;;;;;;;4999260;28;20558;-66
2022/02/12 08:48:52;;;;;;;6.03;2.50;;;;;;;;;;5000770;28;20805;-66
2022/02/12 08:51:17;;;;;;;6.28;2.85;;;;;;;;;;4995896;28;20269;-66
2022/02/12 08:53:43;;;;;;;6.70;2.93;;;;;;;;;;4993349;28;20822;-67
2022/02/12 08:56:08;;;;;;;8.50;3.38;;;;;;;;;;5003208;28;20033;-67
2022/02/12 08:58:34;;;;;;;5.80;2.90;;;;;;;;;;5004105;28;20034;-66
2022/02/12 09:00:59;;;;;;;6.28;3.42;;;;;;;;;;5005518;28;20048;-66
2022/02/12 09:03:24;;;;;;;15.43;5.90;;;;;;;;;;5008065;28;20033;-65
2022/02/12 09:05:50;;;;;;;14.30;6.07;;;;;;;;;;5003185;28;20023;-67
2022/02/12 09:08:15;;;;;;;9.53;4.07;;;;;;;;;;5004113;28;20128;-66
2022/02/12 09:10:40;;;;;;;8.07;3.10;;;;;;;;;;5005682;28;20779;-66
2022/02/12 09:13:05;;;;;;;8.63;3.00;;;;;;;;;;5004825;28;20076;-66
2022/02/12 09:15:30;;;;;;;10.70;3.53;;;;;;;;;;5014200;28;20104;-66
2022/02/12 09:17:56;;;;;;;10.97;4.43;;;;;;;;;;4999511;28;20033;-66
2022/02/12 09:20:21;;;;;;;8.50;4.30;;;;;;;;;;4989602;28;20141;-66
2022/02/12 09:22:46;;;;;;;12.47;4.60;;;;;;;;;;5001243;28;20038;-66
2022/02/12 09:25:12;;;;;;;10.97;3.77;;;;;;;;;;5005656;28;20033;-66
2022/02/12 09:27:37;;;;;;;8.82;3.60;;;;;;;;;;5018020;28;20044;-66
2022/02/12 09:30:03;;;;;;;9.07;2.60;;;;;;;;;;5000127;28;20037;-66
2022/02/12 09:32:28;;;;;;;7.63;2.88;;;;;;;;;;5004236;28;20023;-66
2022/02/12 09:34:53;;;;;;;6.23;3.20;;;;;;;;;;5012873;28;20132;-66
2022/02/12 09:37:19;;;;;;;8.77;3.40;;;;;;;;;;5013472;28;20049;-66
2022/02/12 09:39:44;;;;;;;8.90;2.83;;;;;;;;;;5001678;28;20073;-66
2022/02/12 09:42:10;;;;;;;7.70;2.67;;;;;;;;;;4997137;28;20060;-66
2022/02/12 09:44:37;;;;;;;5.85;2.80;;;;;;;;;;4992535;28;20022;-66
2022/02/12 09:47:22;;;;;;;7.43;3.10;;;;;;;;;;5017267;28;20037;-66
2022/02/12 09:49:48;;;;;;;10.20;3.42;;;;;;;;;;4999998;28;20064;-66
2022/02/12 09:52:14;;;;;;;6.90;3.50;;;;;;;;;;4998274;28;20550;-66
2022/02/12 09:54:40;;;;;;;9.55;3.17;;;;;;;;;;5004891;28;20326;-66
2022/02/12 09:57:06;;;;;;;7.10;3.00;;;;;;;;;;5004376;28;20508;-66
2022/02/12 09:59:31;;;;;;;8.25;3.30;;;;;;;;;;4997784;28;20099;-66
2022/02/12 10:01:56;;;;;;;8.43;3.07;;;;;;;;;;4998149;28;20405;-66
2022/02/12 10:04:22;;;;;;;7.63;3.57;;;;;;;;;;5001638;28;20071;-66
2022/02/12 10:06:47;;;;;;;9.55;3.63;;;;;;;;;;5008707;28;20193;-66
2022/02/12 10:09:13;;;;;;;9.75;3.65;;;;;;;;;;5005136;28;20360;-66
2022/02/12 10:11:39;;;;;;;9.47;3.50;;;;;;;;;;5004719;28;20092;-66
2022/02/12 10:14:07;;;;;;;8.55;3.97;;;;;;;;;;4993389;28;20898;-66
2022/02/12 10:17:08;;;;;;;8.38;4.63;;;;;;;;;;5014082;28;20547;-67
2022/02/12 10:19:34;;;;;;;10.82;4.00;;;;;;;;;;4904314;29;20109;-67
2022/02/12 10:22:06;;;;;;;9.70;3.95;;;;;;;;;;4974703;28;20494;-67
2022/02/12 10:24:45;;;;;;;13.85;4.40;;;;;;;;;;4986203;28;20075;-67
2022/02/12 10:27:10;;;;;;;10.27;3.00;;;;;;;;;;4984884;28;20094;-67
2022/02/12 10:29:35;;;;;;;7.67;3.17;;;;;;;;;;5006526;28;20459;-75
2022/02/12 10:32:03;;;;;;;9.03;3.70;;;;;;;;;;5002668;28;20102;-74
2022/02/12 10:34:42;;;;;;;10.33;5.40;;;;;;;;;;5028163;28;20093;-76
2022/02/12 10:37:08;;;;;;;10.95;3.50;;;;;;;;;;5031211;28;20098;-75
2022/02/12 10:39:37;;;;;;;11.87;4.83;;;;;;;;;;5026253;28;20109;-76
2022/02/12 10:42:06;;;;;;;12.02;4.22;;;;;;;;;;4998084;28;20681;-76
2022/02/12 10:44:31;;;;;;;;;;;;;;;;;;4983702;28;20077;-75
2022/02/12 10:46:56;;;;;;;13.35;7.45;;;;;;;;;;4978437;28;19997;-75
2022/02/12 10:49:24;;;;;;;13.90;7.57;;;;;;;;;;4979402;28;20103;-74
2022/02/12 10:51:51;;;;;;;10.88;5.22;;;;;;;;;;4985560;28;20158;-77
2022/02/12 10:54:19;;;;;;;8.07;4.28;;;;;;;;;;4983256;28;20099;-75
2022/02/12 10:56:52;;;;;;;11.10;5.00;;;;;;;;;;4977465;28;20082;-75
2022/02/12 10:59:21;;;;;;;8.57;4.40;;;;;;;;;;4995626;28;20118;-74
2022/02/12 11:01:46;;;;;;;12.25;5.90;;;;;;;;;;4994033;28;20185;-76
2022/02/12 11:04:12;;;;;;;8.90;2.97;;;;;;;;;;5003713;28;20093;-74
2022/02/12 11:06:38;;;;;;;15.45;8.85;;;;;;;;;;4993513;28;20106;-76
2022/02/12 11:09:03;;;;;;;14.77;4.70;;;;;;;;;;5005082;28;20161;-77
2022/02/12 11:11:32;;;;;;;14.03;6.97;;;;;;;;;;5005955;28;20070;-75
2022/02/12 11:13:58;;;;;;;12.10;6.10;;;;;;;;;;4986988;28;20117;-75
2022/02/12 11:16:24;;;;;;;18.20;9.10;;;;;;;;;;4999020;28;20616;-75
2022/02/12 11:18:49;;;;;;;13.52;4.10;;;;;;;;;;4997733;28;20110;-76
2022/02/12 11:21:14;;;;;;;9.40;4.27;;;;;;;;;;4990624;28;20102;-77
2022/02/12 11:23:39;;;;;;;7.77;3.47;;;;;;;;;;4999231;28;20212;-75
2022/02/12 11:26:04;;;;;;;13.10;6.37;;;;;;;;;;4993266;28;20537;-76
2022/02/12 11:28:33;;;;;;;6.33;2.80;;;;;;;;;;4990561;28;20070;-76
2022/02/12 11:31:17;;;;;;;9.40;4.57;;;;;;;;;;4994035;28;20106;-74
2022/02/12 11:34:14;;;;;;;9.13;4.10;;;;;;;;;;4996868;28;20349;-75
2022/02/12 11:36:40;;;;;;;9.48;3.20;;;;;;;;;;4989181;28;20106;-75
2022/02/12 11:39:13;;;;;;;10.15;4.38;;;;;;;;;;4996875;28;20115;-74
2022/02/12 11:41:39;;;;;;;11.13;4.30;;;;;;;;;;4995340;28;20705;-75
2022/02/12 11:44:04;;;;;;;10.65;4.07;;;;;;;;;;4992973;28;20145;-76
2022/02/12 11:46:48;;;;;;;8.18;3.65;;;;;;;;;;4990349;28;20109;-75
2022/02/12 11:49:23;;;;;;;9.05;3.40;;;;;;;;;;4991105;28;20467;-75
2022/02/12 11:51:48;;;;;;;11.00;4.80;;;;;;;;;;4992318;28;20061;-75
2022/02/12 11:54:33;;;;;;;8.47;3.30;;;;;;;;;;4988773;28;20514;-74
2022/02/12 11:56:58;;;;;;;7.68;3.28;;;;;;;;;;4993985;28;20819;-75
2022/02/12 11:59:24;;;;;;;12.93;5.23;;;;;;;;;;4998901;28;20133;-74
2022/02/12 12:01:51;;;;;;;7.47;3.35;;;;;;;;;;4996435;28;20130;-75
2022/02/12 12:04:18;;;;;;;7.25;3.30;;;;;;;;;;4986981;28;20121;-76
2022/02/12 12:06:59;;;;;;;12.88;6.55;;;;;;;;;;4999731;28;20614;-76
2022/02/12 12:09:31;;;;;;;11.35;6.40;;;;;;;;;;5006185;28;20102;-75
2022/02/12 12:12:19;;;;;;;9.68;5.60;;;;;;;;;;5003027;28;20086;-75
2022/02/12 12:14:44;;;;;;;11.07;3.97;;;;;;;;;;4996057;28;20103;-74
2022/02/12 12:17:10;;;;;;;8.93;4.97;;;;;;;;;;4988536;28;20141;-71
2022/02/12 12:19:36;;;;;;;9.83;5.10;;;;;;;;;;4994693;28;20161;-74
2022/02/12 12:22:05;;;;;;;12.50;6.20;;;;;;;;;;4996230;28;20342;-75
2022/02/12 12:24:30;;;;;;;11.02;5.85;;;;;;;;;;4986151;28;20062;-73
2022/02/12 12:26:55;;;;;;;10.00;5.63;;;;;;;;;;5000352;28;20111;-74
2022/02/12 12:32:05;;;;;;;11.07;5.50;;;;;;;;;;5008143;28;20088;-74
2022/02/12 12:34:30;;;;;;;10.75;5.85;;;;;;;;;;4995720;28;20102;-74
2022/02/12 12:36:59;;;;;;;10.53;3.90;;;;;;;;;;5000570;28;20083;-75
2022/02/12 12:39:31;;;;;;;6.78;3.00;;;;;;;;;;5003250;28;20408;-74
2022/02/12 12:41:57;;;;;;;8.15;4.35;;;;;;;;;;4998849;28;20103;-75
2022/02/12 12:44:25;;;;;;;11.50;6.23;;;;;;;;;;4999878;28;20075;-75
2022/02/12 12:46:51;;;;;;;9.02;5.13;;;;;;;;;;4987646;28;20345;-74
2022/02/12 12:49:30;;;;;;;10.57;4.40;;;;;;;;;;4999333;28;20095;-72
2022/02/12 12:51:55;;;;;;;9.32;4.50;;;;;;;;;;4999038;28;20165;-73
2022/02/12 12:54:31;;;;;;;9.60;3.80;;;;;;;;;;4999859;28;20182;-73
2022/02/12 12:56:57;;;;;;;8.30;4.57;;;;;;;;;;4994305;28;20111;-73
2022/02/12 12:59:22;;;;;;;7.57;2.70;;;;;;;;;;4993335;28;20447;-73
2022/02/12 13:01:56;;;;;;;6.13;2.80;;;;;;;;;;4997215;28;20107;-73
2022/02/12 13:04:21;;;;;;;8.43;5.22;;;;;;;;;;5000285;28;20358;-73
2022/02/12 13:06:48;;;;;;;8.70;4.60;;;;;;;;;;4994812;28;20090;-73
2022/02/12 13:09:13;;;;;;;7.70;4.93;;;;;;;;;;5002324;28;20071;-73
2022/02/12 13:11:39;;;;;;;8.45;3.22;;;;;;;;;;5004872;28;20099;-74
2022/02/12 13:14:08;;;;;;;5.18;2.60;;;;;;;;;;4992566;28;20164;-71
2022/02/12 13:17:00;;;;;;;7.68;3.03;;;;;;;;;;4994560;28;20052;-71
2022/02/12 13:19:26;;;;;;;7.47;4.40;;;;;;;;;;4999751;28;20090;-71
2022/02/12 13:21:52;;;;;;;6.43;3.67;;;;;;;;;;5023017;28;20486;-71
2022/02/12 13:24:19;;;;;;;9.50;3.65;;;;;;;;;;5014389;28;20050;-71
2022/02/12 13:26:44;;;;;;;7.40;4.10;;;;;;;;;;5025430;28;20088;-70
2022/02/12 13:29:16;;;;;;;5.83;3.57;;;;;;;;;;5025347;28;20166;-71
2022/02/12 13:31:44;;;;;;;4.75;2.92;;;;;;;;;;5025704;28;20062;-71
2022/02/12 13:34:09;;;;;;;7.72;3.58;;;;;;;;;;5024930;28;20530;-71
2022/02/12 13:36:41;;;;;;;6.23;3.87;;;;;;;;;;5025818;28;20049;-72
2022/02/12 13:39:06;;;;;;;7.82;3.10;;;;;;;;;;5018896;28;20174;-71
2022/02/12 13:41:38;;;;;;;5.07;2.50;;;;;;;;;;5004253;28;20464;-71
2022/02/12 13:44:03;;;;;;;6.93;3.70;;;;;;;;;;4975067;28;20045;-71
2022/02/12 13:46:33;;;;;;;8.57;3.17;;;;;;;;;;4972786;28;20072;-71
2022/02/12 13:48:58;;;;;;;6.82;3.65;;;;;;;;;;4976501;28;20298;-71
2022/02/12 13:51:23;;;;;;;6.50;3.07;;;;;;;;;;4979584;28;20048;-71
2022/02/12 13:53:52;;;;;;;5.60;2.43;;;;;;;;;;4982716;28;20156;-71
2022/02/12 13:56:17;;;;;;;5.50;2.97;;;;;;;;;;4990892;28;20577;-71
2022/02/12 13:58:42;;;;;;;6.38;3.13;;;;;;;;;;4996015;28;20168;-71
2022/02/12 14:01:08;;;;;;;5.57;3.80;;;;;;;;;;4998465;28;20042;-72
2022/02/12 14:03:36;;;;;;;4.85;3.03;;;;;;;;;;4995412;28;20045;-69
2022/02/12 14:06:02;;;;;;;6.97;3.90;;;;;;;;;;4990310;28;20470;-70
2022/02/12 14:08:27;;;;;;;5.47;2.63;;;;;;;;;;5004088;28;20102;-71
2022/02/12 14:10:52;;;;;;;5.80;3.10;;;;;;;;;;5004460;28;20109;-72
2022/02/12 14:13:18;;;;;;;5.20;3.43;;;;;;;;;;4995879;28;20030;-72
2022/02/12 14:15:43;;;;;;;4.80;3.00;;;;;;;;;;4998671;28;20038;-72
2022/02/12 14:18:08;;;;;;;7.10;3.60;;;;;;;;;;4994313;28;20165;-72
2022/02/12 14:20:33;;;;;;;6.07;2.87;;;;;;;;;;4991876;28;20046;-72
2022/02/12 14:22:59;;;;;;;5.10;2.73;;;;;;;;;;4994761;28;20062;-71
2022/02/12 14:25:25;;;;;;;6.03;3.20;;;;;;;;;;4987963;28;20125;-72
2022/02/12 14:27:50;;;;;;;5.75;3.40;;;;;;;;;;4995544;28;20423;-72
2022/02/12 14:30:15;;;;;;;4.87;2.90;;;;;;;;;;4998333;28;20038;-72
2022/02/12 14:32:40;;;;;;;4.80;3.00;;;;;;;;;;4995261;28;20032;-72
2022/02/12 14:35:06;;;;;;;4.33;2.30;;;;;;;;;;4991657;28;20045;-72
2022/02/12 14:37:31;;;;;;;4.73;2.57;;;;;;;;;;4995676;28;20121;-72
2022/02/12 14:39:56;;;;;;;5.63;2.00;;;;;;;;;;5001845;28;20113;-72
2022/02/12 14:42:21;;;;;;;4.80;2.90;;;;;;;;;;4994411;28;20038;-72
2022/02/12 14:44:47;;;;;;;4.90;2.80;;;;;;;;;;4998449;28;20038;-72